createdAt,value
2022-08-28T00:00:29.010Z,101130.78
2022-08-28T00:02:57.584Z,101117.50
2022-08-28T00:05:27.441Z,101120.56
2022-08-28T00:07:55.226Z,101119.34
2022-08-28T00:10:24.363Z,101123.63
2022-08-28T00:12:55.000Z,101121.41
2022-08-28T00:15:26.632Z,101126.97
2022-08-28T00:17:55.876Z,101124.63
2022-08-28T00:20:24.101Z,101126.56
2022-08-28T00:22:52.706Z,101118.25
2022-08-28T00:25:24.189Z,101124.38
2022-08-28T00:27:55.322Z,101125.88
2022-08-28T00:30:25.548Z,101123.41
2022-08-28T00:32:55.853Z,101117.00
2022-08-28T00:35:24.349Z,101127.69
2022-08-28T00:37:52.625Z,101128.28
2022-08-28T00:40:28.899Z,101126.56
2022-08-28T00:43:01.835Z,101122.41
2022-08-28T00:45:30.365Z,101126.84
2022-08-28T00:47:59.726Z,101126.09
2022-08-28T00:50:30.202Z,101124.63
2022-08-28T00:53:00.011Z,101126.00
2022-08-28T00:55:29.524Z,101131.50
2022-08-28T00:58:00.519Z,101127.19
2022-08-28T01:00:35.486Z,101130.53
2022-08-28T01:03:06.069Z,101133.47
2022-08-28T01:05:36.530Z,101127.31
2022-08-28T01:08:06.282Z,101119.44
2022-08-28T01:10:35.618Z,101122.63
2022-08-28T01:13:04.045Z,101128.03
2022-08-28T01:15:36.064Z,101127.03
2022-08-28T01:18:08.715Z,101123.09
2022-08-28T01:20:44.120Z,101121.88
2022-08-28T01:23:19.142Z,101121.41
2022-08-28T01:25:48.541Z,101118.91
2022-08-28T01:28:16.695Z,101124.03
2022-08-28T01:30:47.506Z,101122.38
2022-08-28T01:33:15.885Z,101119.66
2022-08-28T01:35:48.051Z,101121.22
2022-08-28T01:38:20.089Z,101118.63
2022-08-28T01:40:54.434Z,101120.84
2022-08-28T01:43:26.216Z,101122.53
2022-08-28T01:45:56.282Z,101121.06
2022-08-28T01:48:27.159Z,101115.19
2022-08-28T01:50:55.297Z,101115.44
2022-08-28T01:53:26.060Z,101131.97
2022-08-28T01:56:04.614Z,101131.50
2022-08-28T01:58:37.465Z,101127.31
2022-08-28T02:01:06.354Z,101122.38
2022-08-28T02:03:34.430Z,101129.91
2022-08-28T02:06:02.142Z,101128.59
2022-08-28T02:08:29.942Z,101127.84
2022-08-28T02:10:57.742Z,101140.50
2022-08-28T02:13:26.846Z,101138.75
2022-08-28T02:15:54.926Z,101129.28
2022-08-28T02:18:22.857Z,101141.72
2022-08-28T02:20:50.942Z,101139.25
2022-08-28T02:23:19.457Z,101143.53
2022-08-28T02:25:47.189Z,101137.31
2022-08-28T02:28:17.548Z,101136.56
2022-08-28T02:30:46.793Z,101127.56
2022-08-28T02:33:14.805Z,101129.06
2022-08-28T02:35:43.338Z,101135.16
2022-08-28T02:38:11.558Z,101129.69
2022-08-28T02:40:41.204Z,101130.09
2022-08-28T02:43:08.986Z,101134.19
2022-08-28T02:45:37.607Z,101137.09
2022-08-28T02:48:14.685Z,101144.09
2022-08-28T02:50:45.184Z,101139.41
2022-08-28T02:53:13.303Z,101142.72
2022-08-28T02:55:41.429Z,101147.16
2022-08-28T02:58:09.634Z,101148.03
2022-08-28T03:00:37.642Z,101144.81
2022-08-28T03:03:06.791Z,101151.72
2022-08-28T03:05:34.569Z,101147.75
2022-08-28T03:08:02.334Z,101149.06
2022-08-28T03:10:30.173Z,101145.25
2022-08-28T03:12:57.922Z,101151.31
2022-08-28T03:15:25.740Z,101151.31
2022-08-28T03:17:53.480Z,101147.53
2022-08-28T03:20:23.361Z,101147.00
2022-08-28T03:23:08.899Z,101150.56
2022-08-28T03:25:36.694Z,101153.28
2022-08-28T03:28:04.872Z,101142.25
2022-08-28T03:30:32.793Z,101149.91
2022-08-28T03:33:01.160Z,101147.53
2022-08-28T03:35:30.781Z,101145.50
2022-08-28T03:37:58.622Z,101148.94
2022-08-28T03:40:26.434Z,101148.94
2022-08-28T03:42:54.203Z,101145.84
2022-08-28T03:45:22.301Z,101142.19
2022-08-28T03:47:50.361Z,101147.91
2022-08-28T03:50:19.696Z,101153.31
2022-08-28T03:52:49.170Z,101147.16
2022-08-28T03:55:18.816Z,101147.38
2022-08-28T03:57:46.833Z,101153.31
2022-08-28T04:00:16.437Z,101158.94
2022-08-28T04:02:46.190Z,101161.28
2022-08-28T04:05:14.292Z,101149.63
2022-08-28T04:07:42.052Z,101163.25
2022-08-28T04:10:12.267Z,101154.13
2022-08-28T04:12:40.171Z,101160.66
2022-08-28T04:15:09.338Z,101155.03
2022-08-28T04:17:39.630Z,101151.44
2022-08-28T04:20:11.035Z,101153.25
2022-08-28T04:22:39.089Z,101156.28
2022-08-28T04:25:07.871Z,101160.47
2022-08-28T04:27:36.979Z,101156.28
2022-08-28T04:30:05.841Z,101152.94
2022-08-28T04:32:35.378Z,101149.59
2022-08-28T04:35:03.276Z,101156.97
2022-08-28T04:37:31.019Z,101163.88
2022-08-28T04:39:58.804Z,101160.00
2022-08-28T04:42:26.866Z,101149.19
2022-08-28T04:44:59.582Z,101156.34
2022-08-28T04:47:27.794Z,101161.50
2022-08-28T04:49:55.673Z,101163.66
2022-08-28T04:52:23.838Z,101154.13
2022-08-28T04:54:51.564Z,101148.28
2022-08-28T04:57:19.291Z,101146.09
2022-08-28T04:59:47.066Z,101147.78
2022-08-28T05:02:16.240Z,101153.81
2022-08-28T05:04:44.084Z,101151.13
2022-08-28T05:07:11.819Z,101150.69
2022-08-28T05:09:39.561Z,101144.97
2022-08-28T05:12:07.530Z,101148.16
2022-08-28T05:14:35.305Z,101150.34
2022-08-28T05:17:03.044Z,101166.81
2022-08-28T05:19:33.736Z,101150.75
2022-08-28T05:22:01.506Z,101150.53
2022-08-28T05:24:29.290Z,101158.97
2022-08-28T05:26:57.931Z,101161.66
2022-08-28T05:29:25.742Z,101172.50
2022-08-28T05:31:53.613Z,101171.88
2022-08-28T05:34:21.842Z,101166.44
2022-08-28T05:36:50.992Z,101174.53
2022-08-28T05:39:18.914Z,101176.47
2022-08-28T05:41:47.521Z,101187.94
2022-08-28T05:44:17.487Z,101195.38
2022-08-28T05:46:48.037Z,101195.50
2022-08-28T05:49:17.828Z,101196.13
2022-08-28T05:51:45.669Z,101193.66
2022-08-28T05:54:15.934Z,101201.06
2022-08-28T05:56:45.313Z,101192.13
2022-08-28T05:59:14.378Z,101190.63
2022-08-28T06:01:44.995Z,101190.63
2022-08-28T06:04:15.736Z,101203.34
2022-08-28T06:06:43.585Z,101211.97
2022-08-28T06:09:15.019Z,101213.91
2022-08-28T06:11:44.801Z,101214.34
2022-08-28T06:14:16.576Z,101215.53
2022-08-28T06:16:48.429Z,101212.81
2022-08-28T06:19:17.468Z,101216.50
2022-08-28T06:21:46.823Z,101215.88
2022-08-28T06:24:16.271Z,101217.69
2022-08-28T06:26:44.352Z,101221.44
2022-08-28T06:29:17.181Z,101228.88
2022-08-28T06:31:45.157Z,101233.88
2022-08-28T06:34:13.587Z,101230.75
2022-08-28T06:36:43.237Z,101236.69
2022-08-28T06:39:12.863Z,101233.31
2022-08-28T06:41:43.756Z,101235.25
2022-08-28T06:44:12.432Z,101235.50
2022-08-28T06:46:40.214Z,101243.69
2022-08-28T06:49:09.438Z,101244.72
2022-08-28T06:51:37.340Z,101243.19
2022-08-28T06:54:05.863Z,101253.78
2022-08-28T06:56:34.138Z,101251.09
2022-08-28T06:59:03.532Z,101250.47
2022-08-28T07:01:33.733Z,101250.22
2022-08-28T07:04:03.986Z,101259.72
2022-08-28T07:06:34.209Z,101257.69
2022-08-28T07:09:02.562Z,101253.00
2022-08-28T07:11:32.391Z,101260.34
2022-08-28T07:14:00.982Z,101260.66
2022-08-28T07:16:32.882Z,101262.38
2022-08-28T07:19:03.459Z,101251.44
2022-08-28T07:21:32.621Z,101253.69
2022-08-28T07:24:05.729Z,101261.31
2022-08-28T07:26:33.595Z,101257.44
2022-08-28T07:29:09.937Z,101267.19
2022-08-28T07:31:41.369Z,101255.78
2022-08-28T07:34:10.868Z,101261.09
2022-08-28T07:36:38.908Z,101257.63
2022-08-28T07:39:08.422Z,101255.78
2022-08-28T07:41:39.406Z,101265.03
2022-08-28T07:44:26.154Z,101261.69
2022-08-28T07:46:56.738Z,101255.28
2022-08-28T07:49:24.970Z,101257.50
2022-08-28T07:51:53.962Z,101256.03
2022-08-28T07:54:22.714Z,101253.47
2022-08-28T07:56:51.267Z,101255.28
2022-08-28T07:59:19.630Z,101256.41
2022-08-28T08:01:50.668Z,101258.72
2022-08-28T08:04:21.293Z,101257.41
2022-08-28T08:06:51.366Z,101257.72
2022-08-28T08:09:22.387Z,101260.03
2022-08-28T08:11:50.765Z,101253.50
2022-08-28T08:14:19.041Z,101253.38
2022-08-28T08:16:48.482Z,101259.91
2022-08-28T08:19:17.166Z,101259.56
2022-08-28T08:21:54.697Z,101257.78
2022-08-28T08:24:25.911Z,101263.28
2022-08-28T08:26:59.912Z,101259.38
2022-08-28T08:29:31.225Z,101252.00
2022-08-28T08:32:04.857Z,101252.78
2022-08-28T08:34:33.349Z,101252.78
2022-08-28T08:37:02.593Z,101251.66
2022-08-28T08:39:31.816Z,101248.44
2022-08-28T08:42:03.298Z,101254.50
2022-08-28T08:44:34.653Z,101257.69
2022-08-28T08:47:16.535Z,101257.44
2022-08-28T08:49:51.222Z,101254.13
2022-08-28T08:52:30.992Z,101247.25
2022-08-28T08:55:24.549Z,101248.91
2022-08-28T08:57:57.874Z,101258.66
2022-08-28T09:00:25.913Z,101256.66
2022-08-28T09:03:02.631Z,101258.22
2022-08-28T09:05:42.517Z,101253.56
2022-08-28T09:08:26.889Z,101251.16
2022-08-28T09:11:01.817Z,101249.69
2022-08-28T09:13:38.476Z,101248.28
2022-08-28T09:16:19.042Z,101250.31
2022-08-28T09:18:48.064Z,101248.44
2022-08-28T09:21:29.301Z,101239.72
2022-08-28T09:24:01.277Z,101244.34
2022-08-28T09:26:34.170Z,101255.06
2022-08-28T09:29:06.212Z,101255.50
2022-08-28T09:31:37.172Z,101246.59
2022-08-28T09:34:25.514Z,101246.56
2022-08-28T09:36:54.841Z,101240.59
2022-08-28T09:39:26.670Z,101243.19
2022-08-28T09:42:20.769Z,101246.03
2022-08-28T09:45:01.956Z,101248.59
2022-08-28T09:47:49.301Z,101248.47
2022-08-28T09:50:27.712Z,101242.59
2022-08-28T09:52:57.843Z,101251.88
2022-08-28T09:55:34.759Z,101247.41
2022-08-28T09:58:02.784Z,101246.75
2022-08-28T10:00:34.901Z,101248.06
2022-08-28T10:03:14.498Z,101243.00
2022-08-28T10:05:50.583Z,101244.63
2022-08-28T10:08:34.497Z,101250.84
2022-08-28T10:11:16.973Z,101254.81
2022-08-28T10:13:54.837Z,101259.66
2022-08-28T10:16:30.373Z,101253.13
2022-08-28T10:19:06.855Z,101241.19
2022-08-28T10:21:43.001Z,101244.22
2022-08-28T10:24:28.501Z,101248.19
2022-08-28T10:27:07.326Z,101250.00
2022-08-28T10:29:49.567Z,101244.22
2022-08-28T10:32:35.801Z,101249.91
2022-08-28T10:35:11.861Z,101241.19
2022-08-28T10:37:51.949Z,101235.09
2022-08-28T10:40:27.315Z,101232.19
2022-08-28T10:43:03.922Z,101227.34
2022-08-28T10:45:34.644Z,101221.16
2022-08-28T10:48:10.137Z,101227.25
2022-08-28T10:50:43.998Z,101228.59
2022-08-28T10:53:16.589Z,101223.09
2022-08-28T10:55:52.442Z,101216.69
2022-08-28T10:58:25.565Z,101219.34
2022-08-28T11:00:56.311Z,101220.84
2022-08-28T11:03:35.586Z,101237.31
2022-08-28T11:06:10.037Z,101231.25
2022-08-28T11:08:40.585Z,101231.22
2022-08-28T11:11:14.833Z,101234.41
2022-08-28T11:13:57.106Z,101233.34
2022-08-28T11:16:37.800Z,101228.50
2022-08-28T11:19:26.433Z,101231.59
2022-08-28T11:21:59.365Z,101225.75
2022-08-28T11:24:47.262Z,101228.28
2022-08-28T11:27:23.127Z,101230.72
2022-08-28T11:30:21.718Z,101229.44
2022-08-28T11:33:08.323Z,101226.50
2022-08-28T11:35:51.548Z,101219.53
2022-08-28T11:39:01.021Z,101223.50
2022-08-28T11:41:31.414Z,101225.53
2022-08-28T11:44:40.149Z,101219.19
2022-08-28T11:47:52.160Z,101228.06
2022-08-28T11:50:26.025Z,101222.22
2022-08-28T11:53:22.920Z,101226.38
2022-08-28T11:56:05.102Z,101217.91
2022-08-28T11:58:39.853Z,101212.25
2022-08-28T12:01:10.949Z,101217.88
2022-08-28T12:03:42.229Z,101215.13
2022-08-28T12:06:13.315Z,101213.78
2022-08-28T12:09:11.715Z,101213.78
2022-08-28T12:12:05.009Z,101219.63
2022-08-28T12:15:04.881Z,101217.97
2022-08-28T12:17:54.112Z,101213.44
2022-08-28T12:20:39.908Z,101213.28
2022-08-28T12:23:34.741Z,101217.91
2022-08-28T12:26:05.190Z,101220.09
2022-08-28T12:28:38.623Z,101220.19
2022-08-28T12:31:56.282Z,101212.66
2022-08-28T12:34:35.505Z,101212.28
2022-08-28T12:37:06.542Z,101202.06
2022-08-28T12:39:38.331Z,101215.44
2022-08-28T12:42:14.509Z,101215.72
2022-08-28T12:44:42.426Z,101208.31
2022-08-28T12:47:12.596Z,101212.44
2022-08-28T12:49:40.350Z,101218.94
2022-08-28T12:52:11.523Z,101214.16
2022-08-28T12:54:46.869Z,101217.25
2022-08-28T12:57:17.399Z,101220.31
2022-08-28T12:59:47.365Z,101211.41
2022-08-28T13:02:25.844Z,101208.31
2022-08-28T13:04:57.934Z,101200.31
2022-08-28T13:07:31.229Z,101202.19
2022-08-28T13:10:03.405Z,101200.78
2022-08-28T13:12:37.870Z,101191.72
2022-08-28T13:15:48.845Z,101190.19
2022-08-28T13:18:39.614Z,101191.38
2022-08-28T13:21:35.329Z,101183.34
2022-08-28T13:24:26.218Z,101180.56
2022-08-28T13:27:07.195Z,101173.94
2022-08-28T13:29:35.986Z,101179.66
2022-08-28T13:32:06.311Z,101190.50
2022-08-28T13:34:36.177Z,101188.06
2022-08-28T13:37:14.614Z,101184.72
2022-08-28T13:39:48.542Z,101176.16
2022-08-28T13:42:18.945Z,101179.59
2022-08-28T13:44:48.705Z,101176.84
2022-08-28T13:47:17.214Z,101174.59
2022-08-28T13:49:44.956Z,101176.06
2022-08-28T13:52:12.994Z,101169.66
2022-08-28T13:54:43.703Z,101177.53
2022-08-28T13:57:14.433Z,101178.91
2022-08-28T13:59:43.615Z,101172.06
2022-08-28T14:02:31.872Z,101170.69
2022-08-28T14:04:59.685Z,101171.16
2022-08-28T14:07:27.441Z,101175.63
2022-08-28T14:09:56.586Z,101172.78
2022-08-28T14:12:31.410Z,101171.56
2022-08-28T14:15:03.352Z,101165.16
2022-08-28T14:17:31.094Z,101148.97
2022-08-28T14:19:59.810Z,101151.22
2022-08-28T14:22:27.726Z,101149.47
2022-08-28T14:24:55.451Z,101153.13
2022-08-28T14:27:23.183Z,101154.88
2022-08-28T14:29:50.995Z,101148.78
2022-08-28T14:32:20.105Z,101147.38
2022-08-28T14:34:47.879Z,101142.59
2022-08-28T14:37:16.004Z,101128.88
2022-08-28T14:39:43.814Z,101132.34
2022-08-28T14:42:11.611Z,101132.94
2022-08-28T14:44:41.087Z,101124.09
2022-08-28T14:47:08.827Z,101129.50
2022-08-28T14:49:39.211Z,101129.50
2022-08-28T14:52:07.049Z,101121.22
2022-08-28T14:54:34.854Z,101115.03
2022-08-28T14:57:02.764Z,101131.00
2022-08-28T14:59:32.466Z,101131.50
2022-08-28T15:02:02.015Z,101131.66
2022-08-28T15:04:34.698Z,101130.88
2022-08-28T15:07:06.421Z,101119.91
2022-08-28T15:09:37.895Z,101122.69
2022-08-28T15:12:06.126Z,101119.03
2022-08-28T15:14:34.430Z,101119.88
2022-08-28T15:17:03.374Z,101110.56
2022-08-28T15:19:31.231Z,101114.81
2022-08-28T15:21:59.518Z,101115.66
2022-08-28T15:24:33.051Z,101105.53
2022-08-28T15:27:01.457Z,101107.03
2022-08-28T15:29:30.029Z,101113.56
2022-08-28T15:31:58.640Z,101108.81
2022-08-28T15:34:28.974Z,101109.03
2022-08-28T15:36:57.807Z,101104.81
2022-08-28T15:39:43.322Z,101104.50
2022-08-28T15:42:12.505Z,101104.84
2022-08-28T15:44:40.295Z,101100.22
2022-08-28T15:47:08.633Z,101100.06
2022-08-28T15:49:43.349Z,101098.50
2022-08-28T15:52:18.216Z,101098.31
2022-08-28T15:54:46.014Z,101096.06
2022-08-28T15:57:15.490Z,101100.53
2022-08-28T15:59:49.568Z,101103.31
2022-08-28T16:02:19.129Z,101103.81
2022-08-28T16:04:46.931Z,101102.63
2022-08-28T16:07:14.689Z,101103.81
2022-08-28T16:09:42.537Z,101107.94
2022-08-28T16:12:10.370Z,101106.06
2022-08-28T16:14:39.536Z,101113.06
2022-08-28T16:17:11.144Z,101105.69
2022-08-28T16:19:39.712Z,101101.28
2022-08-28T16:22:07.586Z,101102.81
2022-08-28T16:24:35.345Z,101106.19
2022-08-28T16:27:03.107Z,101106.75
2022-08-28T16:29:30.902Z,101114.59
2022-08-28T16:32:00.042Z,101100.75
2022-08-28T16:34:31.508Z,101092.34
2022-08-28T16:36:59.694Z,101091.31
2022-08-28T16:39:27.909Z,101086.00
2022-08-28T16:41:55.898Z,101066.00
2022-08-28T16:44:25.696Z,101068.41
2022-08-28T16:46:54.063Z,101065.63
2022-08-28T16:49:23.941Z,101069.00
2022-08-28T16:51:51.923Z,101066.50
2022-08-28T16:54:21.481Z,101068.50
2022-08-28T16:56:49.385Z,101060.50
2022-08-28T16:59:20.476Z,101062.81
2022-08-28T17:01:53.057Z,101065.28
2022-08-28T17:04:23.778Z,101066.38
2022-08-28T17:06:51.535Z,101073.78
2022-08-28T17:09:20.917Z,101070.28
2022-08-28T17:11:51.533Z,101068.31
2022-08-28T17:14:19.941Z,101068.25
2022-08-28T17:16:47.749Z,101077.56
2022-08-28T17:19:15.862Z,101057.66
2022-08-28T17:22:02.424Z,101064.88
2022-08-28T17:24:30.985Z,101070.72
2022-08-28T17:27:03.224Z,101077.00
2022-08-28T17:29:33.156Z,101066.69
2022-08-28T17:32:01.021Z,101060.81
2022-08-28T17:34:30.575Z,101059.44
2022-08-28T17:36:59.911Z,101065.47
2022-08-28T17:39:27.633Z,101066.00
2022-08-28T17:41:55.366Z,101070.22
2022-08-28T17:44:23.215Z,101066.63
2022-08-28T17:46:51.610Z,101067.97
2022-08-28T17:49:19.489Z,101058.19
2022-08-28T17:51:47.592Z,101064.38
2022-08-28T17:54:21.306Z,101068.47
2022-08-28T17:56:49.599Z,101066.34
2022-08-28T17:59:17.371Z,101072.63
2022-08-28T18:01:46.760Z,101067.41
2022-08-28T18:04:23.039Z,101068.00
2022-08-28T18:06:54.022Z,101060.13
2022-08-28T18:09:23.797Z,101060.72
2022-08-28T18:11:52.320Z,101059.38
2022-08-28T18:14:20.942Z,101065.03
2022-08-28T18:16:48.751Z,101069.22
2022-08-28T18:19:16.807Z,101068.91
2022-08-28T18:21:44.879Z,101077.13
2022-08-28T18:24:13.238Z,101066.59
2022-08-28T18:26:43.762Z,101069.66
2022-08-28T18:29:11.736Z,101068.97
2022-08-28T18:31:40.029Z,101071.31
2022-08-28T18:34:09.744Z,101079.13
2022-08-28T18:36:39.862Z,101068.13
2022-08-28T18:39:07.979Z,101072.28
2022-08-28T18:41:43.813Z,101072.94
2022-08-28T18:44:14.341Z,101069.94
2022-08-28T18:46:42.581Z,101071.06
2022-08-28T18:49:10.816Z,101072.03
2022-08-28T18:51:38.685Z,101067.81
2022-08-28T18:54:06.422Z,101068.97
2022-08-28T18:56:36.127Z,101072.56
2022-08-28T18:59:06.351Z,101079.78
2022-08-28T19:01:35.629Z,101079.63
2022-08-28T19:04:03.868Z,101081.97
2022-08-28T19:06:31.820Z,101084.00
2022-08-28T19:08:59.698Z,101082.09
2022-08-28T19:11:31.385Z,101092.84
2022-08-28T19:13:59.583Z,101093.81
2022-08-28T19:16:32.636Z,101094.44
2022-08-28T19:19:02.732Z,101105.34
2022-08-28T19:21:31.142Z,101104.09
2022-08-28T19:23:58.981Z,101106.81
2022-08-28T19:26:27.901Z,101105.94
2022-08-28T19:28:56.016Z,101096.50
2022-08-28T19:31:24.823Z,101106.72
2022-08-28T19:33:52.633Z,101109.41
2022-08-28T19:36:21.727Z,101104.56
2022-08-28T19:38:49.500Z,101120.91
2022-08-28T19:41:17.587Z,101123.44
2022-08-28T19:43:45.383Z,101120.91
2022-08-28T19:46:19.640Z,101127.34
2022-08-28T19:48:49.086Z,101119.50
2022-08-28T19:51:22.928Z,101127.50
2022-08-28T19:53:58.295Z,101123.66
2022-08-28T19:56:28.342Z,101132.81
2022-08-28T19:58:57.364Z,101133.81
2022-08-28T20:01:25.253Z,101136.09
2022-08-28T20:03:53.177Z,101132.66
2022-08-28T20:06:20.924Z,101131.53
2022-08-28T20:08:48.661Z,101134.31
2022-08-28T20:11:19.595Z,101133.72
2022-08-28T20:13:47.330Z,101133.59
2022-08-28T20:16:15.094Z,101123.13
2022-08-28T20:18:42.850Z,101129.28
2022-08-28T20:21:12.505Z,101128.31
2022-08-28T20:23:40.447Z,101136.28
2022-08-28T20:26:10.753Z,101140.56
2022-08-28T20:28:40.372Z,101137.41
2022-08-28T20:31:09.899Z,101140.41
2022-08-28T20:33:38.092Z,101139.38
2022-08-28T20:36:08.249Z,101140.81
2022-08-28T20:38:47.057Z,101144.91
2022-08-28T20:41:18.505Z,101139.31
2022-08-28T20:43:48.384Z,101146.19
2022-08-28T20:46:17.168Z,101148.34
2022-08-28T20:48:45.646Z,101150.59
2022-08-28T20:51:13.925Z,101139.16
2022-08-28T20:53:41.692Z,101141.59
2022-08-28T20:56:11.357Z,101140.38
2022-08-28T20:58:39.368Z,101153.13
2022-08-28T21:01:08.619Z,101153.03
2022-08-28T21:03:36.385Z,101158.44
2022-08-28T21:06:04.180Z,101165.03
2022-08-28T21:08:31.898Z,101172.72
2022-08-28T21:10:59.620Z,101174.00
2022-08-28T21:13:28.045Z,101164.41
2022-08-28T21:15:55.810Z,101165.25
2022-08-28T21:18:25.009Z,101160.53
2022-08-28T21:20:54.910Z,101173.63
2022-08-28T21:23:22.658Z,101177.28
2022-08-28T21:25:50.406Z,101171.91
2022-08-28T21:28:18.216Z,101181.03
2022-08-28T21:30:46.028Z,101172.69
2022-08-28T21:33:13.810Z,101178.19
2022-08-28T21:35:43.014Z,101176.13
2022-08-28T21:38:10.775Z,101178.22
2022-08-28T21:40:40.657Z,101178.59
2022-08-28T21:43:08.503Z,101186.63
2022-08-28T21:45:36.311Z,101176.81
2022-08-28T21:48:04.677Z,101185.59
2022-08-28T21:50:32.471Z,101185.28
2022-08-28T21:53:01.568Z,101192.53
2022-08-28T21:55:29.295Z,101188.63
2022-08-28T21:57:57.261Z,101186.25
2022-08-28T22:00:25.137Z,101195.09
2022-08-28T22:02:52.943Z,101201.22
2022-08-28T22:05:21.358Z,101205.50
2022-08-28T22:07:49.133Z,101198.59
2022-08-28T22:10:18.237Z,101207.06
2022-08-28T22:12:45.953Z,101207.88
2022-08-28T22:15:13.702Z,101206.00
2022-08-28T22:17:41.496Z,101199.63
2022-08-28T22:20:10.410Z,101204.72
2022-08-28T22:22:55.590Z,101204.09
2022-08-28T22:25:24.993Z,101200.53
2022-08-28T22:27:52.726Z,101206.56
2022-08-28T22:30:20.923Z,101205.22
2022-08-28T22:32:48.665Z,101203.84
2022-08-28T22:35:16.559Z,101200.44
2022-08-28T22:37:44.285Z,101204.22
2022-08-28T22:40:13.560Z,101201.16
2022-08-28T22:42:43.406Z,101202.41
2022-08-28T22:45:11.886Z,101203.00
2022-08-28T22:47:39.939Z,101208.81
2022-08-28T22:50:09.162Z,101202.75
2022-08-28T22:52:37.155Z,101205.09
2022-08-28T22:55:06.654Z,101212.00
2022-08-28T22:57:34.495Z,101204.75
2022-08-28T23:00:04.746Z,101201.16
2022-08-28T23:02:32.543Z,101202.38
2022-08-28T23:05:00.270Z,101206.19
2022-08-28T23:07:28.107Z,101199.03
2022-08-28T23:09:55.848Z,101197.44
2022-08-28T23:12:24.048Z,101196.34
2022-08-28T23:14:52.313Z,101201.88
2022-08-28T23:17:21.408Z,101210.25
2022-08-28T23:19:49.492Z,101206.44
2022-08-28T23:22:18.179Z,101212.09
2022-08-28T23:24:47.244Z,101205.31
2022-08-28T23:27:35.275Z,101206.81
2022-08-28T23:30:02.977Z,101204.09
2022-08-28T23:32:33.719Z,101202.84
2022-08-28T23:35:01.934Z,101206.06
2022-08-28T23:37:29.722Z,101208.78
2022-08-28T23:39:59.079Z,101204.34
2022-08-28T23:42:28.598Z,101203.59
2022-08-28T23:44:56.999Z,101205.59
2022-08-28T23:47:24.799Z,101205.94
2022-08-28T23:49:53.900Z,101206.56
2022-08-28T23:52:21.781Z,101208.78
2022-08-28T23:54:49.973Z,101217.88
2022-08-28T23:57:17.926Z,101210.75
2022-08-28T23:59:45.710Z,101211.75
